sensor_id;sensor_type;location;lat;lon;timestamp;P1;durP1;ratioP1;P2;durP2;ratioP2
450;SDS011;212;48.748;9.174;2022-08-03T00:02:02;3.50;;;3.30;;
450;SDS011;212;48.748;9.174;2022-08-03T00:04:28;3.87;;;3.00;;
450;SDS011;212;48.748;9.174;2022-08-03T00:06:55;3.20;;;3.00;;
450;SDS011;212;48.748;9.174;2022-08-03T00:09:22;3.10;;;2.90;;
450;SDS011;212;48.748;9.174;2022-08-03T00:11:48;3.63;;;3.43;;
450;SDS011;212;48.748;9.174;2022-08-03T00:14:15;3.40;;;3.27;;
450;SDS011;212;48.748;9.174;2022-08-03T00:16:43;3.63;;;3.50;;
450;SDS011;212;48.748;9.174;2022-08-03T00:19:09;3.40;;;3.20;;
450;SDS011;212;48.748;9.174;2022-08-03T00:21:36;3.30;;;3.10;;
450;SDS011;212;48.748;9.174;2022-08-03T00:24:03;3.87;;;3.63;;
450;SDS011;212;48.748;9.174;2022-08-03T00:26:30;3.57;;;3.40;;
450;SDS011;212;48.748;9.174;2022-08-03T00:28:57;3.53;;;3.03;;
450;SDS011;212;48.748;9.174;2022-08-03T00:31:23;3.57;;;3.37;;
450;SDS011;212;48.748;9.174;2022-08-03T00:33:51;3.87;;;3.67;;
450;SDS011;212;48.748;9.174;2022-08-03T00:36:18;3.57;;;3.30;;
450;SDS011;212;48.748;9.174;2022-08-03T00:38:45;3.97;;;3.77;;
450;SDS011;212;48.748;9.174;2022-08-03T00:41:11;3.27;;;3.07;;
450;SDS011;212;48.748;9.174;2022-08-03T00:43:38;3.93;;;3.73;;
450;SDS011;212;48.748;9.174;2022-08-03T00:46:05;4.00;;;3.30;;
450;SDS011;212;48.748;9.174;2022-08-03T00:48:31;5.77;;;5.47;;
450;SDS011;212;48.748;9.174;2022-08-03T00:50:59;4.07;;;3.87;;
450;SDS011;212;48.748;9.174;2022-08-03T00:53:26;3.23;;;3.03;;
450;SDS011;212;48.748;9.174;2022-08-03T00:55:53;3.97;;;3.77;;
450;SDS011;212;48.748;9.174;2022-08-03T00:58:20;3.67;;;3.47;;
450;SDS011;212;48.748;9.174;2022-08-03T01:00:48;5.93;;;3.67;;
450;SDS011;212;48.748;9.174;2022-08-03T01:03:15;3.30;;;3.10;;
450;SDS011;212;48.748;9.174;2022-08-03T01:05:44;3.90;;;3.70;;
450;SDS011;212;48.748;9.174;2022-08-03T01:08:21;3.60;;;3.40;;
450;SDS011;212;48.748;9.174;2022-08-03T01:11:00;5.13;;;4.20;;
450;SDS011;212;48.748;9.174;2022-08-03T01:13:34;4.40;;;4.10;;
450;SDS011;212;48.748;9.174;2022-08-03T01:16:07;4.07;;;3.87;;
450;SDS011;212;48.748;9.174;2022-08-03T01:18:43;3.80;;;3.60;;
450;SDS011;212;48.748;9.174;2022-08-03T01:21:13;4.30;;;4.03;;
450;SDS011;212;48.748;9.174;2022-08-03T01:23:51;4.23;;;3.50;;
450;SDS011;212;48.748;9.174;2022-08-03T01:26:32;4.40;;;4.10;;
450;SDS011;212;48.748;9.174;2022-08-03T01:29:13;3.70;;;3.50;;
450;SDS011;212;48.748;9.174;2022-08-03T01:32:04;3.63;;;3.40;;
450;SDS011;212;48.748;9.174;2022-08-03T01:34:40;3.87;;;3.30;;
450;SDS011;212;48.748;9.174;2022-08-03T01:37:12;3.90;;;3.70;;
450;SDS011;212;48.748;9.174;2022-08-03T01:39:41;3.80;;;3.27;;
450;SDS011;212;48.748;9.174;2022-08-03T01:42:10;3.93;;;3.73;;
450;SDS011;212;48.748;9.174;2022-08-03T01:44:40;3.60;;;3.40;;
450;SDS011;212;48.748;9.174;2022-08-03T01:47:10;5.10;;;3.53;;
450;SDS011;212;48.748;9.174;2022-08-03T01:49:39;4.23;;;3.97;;
450;SDS011;212;48.748;9.174;2022-08-03T01:52:09;3.87;;;3.73;;
450;SDS011;212;48.748;9.174;2022-08-03T01:54:39;3.20;;;3.00;;
450;SDS011;212;48.748;9.174;2022-08-03T01:57:09;3.87;;;3.67;;
450;SDS011;212;48.748;9.174;2022-08-03T01:59:36;3.87;;;3.70;;
450;SDS011;212;48.748;9.174;2022-08-03T02:02:06;5.80;;;3.43;;
450;SDS011;212;48.748;9.174;2022-08-03T02:04:37;3.37;;;3.17;;
450;SDS011;212;48.748;9.174;2022-08-03T02:07:05;3.60;;;3.40;;
450;SDS011;212;48.748;9.174;2022-08-03T02:09:36;3.40;;;3.20;;
450;SDS011;212;48.748;9.174;2022-08-03T02:12:06;3.87;;;3.67;;
450;SDS011;212;48.748;9.174;2022-08-03T02:14:34;4.40;;;4.10;;
450;SDS011;212;48.748;9.174;2022-08-03T02:17:01;3.43;;;3.23;;
450;SDS011;212;48.748;9.174;2022-08-03T02:19:30;5.77;;;3.90;;
450;SDS011;212;48.748;9.174;2022-08-03T02:21:59;3.23;;;3.03;;
450;SDS011;212;48.748;9.174;2022-08-03T02:24:27;4.10;;;3.90;;
450;SDS011;212;48.748;9.174;2022-08-03T02:26:54;3.40;;;3.20;;
450;SDS011;212;48.748;9.174;2022-08-03T02:29:23;3.50;;;3.30;;
450;SDS011;212;48.748;9.174;2022-08-03T02:31:51;4.83;;;4.53;;
450;SDS011;212;48.748;9.174;2022-08-03T02:34:22;4.17;;;3.50;;
450;SDS011;212;48.748;9.174;2022-08-03T02:36:54;3.60;;;3.40;;
450;SDS011;212;48.748;9.174;2022-08-03T02:39:24;3.70;;;3.50;;
450;SDS011;212;48.748;9.174;2022-08-03T02:41:53;4.63;;;3.33;;
450;SDS011;212;48.748;9.174;2022-08-03T02:44:26;4.00;;;3.80;;
450;SDS011;212;48.748;9.174;2022-08-03T02:46:54;3.80;;;3.60;;
450;SDS011;212;48.748;9.174;2022-08-03T02:49:25;3.10;;;2.90;;
450;SDS011;212;48.748;9.174;2022-08-03T02:51:54;4.90;;;4.60;;
450;SDS011;212;48.748;9.174;2022-08-03T02:54:23;3.80;;;3.60;;
450;SDS011;212;48.748;9.174;2022-08-03T02:56:53;4.17;;;3.93;;
450;SDS011;212;48.748;9.174;2022-08-03T02:59:22;3.77;;;3.57;;
450;SDS011;212;48.748;9.174;2022-08-03T03:01:50;4.37;;;3.30;;
450;SDS011;212;48.748;9.174;2022-08-03T03:04:18;3.43;;;3.23;;
450;SDS011;212;48.748;9.174;2022-08-03T03:06:45;3.97;;;3.77;;
450;SDS011;212;48.748;9.174;2022-08-03T03:09:14;4.30;;;4.00;;
450;SDS011;212;48.748;9.174;2022-08-03T03:11:42;4.30;;;4.00;;
450;SDS011;212;48.748;9.174;2022-08-03T03:14:09;3.80;;;3.10;;
450;SDS011;212;48.748;9.174;2022-08-03T03:16:37;5.40;;;5.10;;
450;SDS011;212;48.748;9.174;2022-08-03T03:19:05;4.70;;;4.40;;
450;SDS011;212;48.748;9.174;2022-08-03T03:21:33;3.73;;;3.53;;
450;SDS011;212;48.748;9.174;2022-08-03T03:24:01;3.77;;;3.57;;
450;SDS011;212;48.748;9.174;2022-08-03T03:26:31;4.87;;;4.57;;
450;SDS011;212;48.748;9.174;2022-08-03T03:28:59;5.43;;;5.07;;
450;SDS011;212;48.748;9.174;2022-08-03T03:31:26;5.10;;;4.80;;
450;SDS011;212;48.748;9.174;2022-08-03T03:33:53;4.90;;;4.60;;
450;SDS011;212;48.748;9.174;2022-08-03T03:36:22;4.60;;;4.30;;
450;SDS011;212;48.748;9.174;2022-08-03T03:38:49;5.90;;;5.60;;
450;SDS011;212;48.748;9.174;2022-08-03T03:41:15;5.10;;;4.80;;
450;SDS011;212;48.748;9.174;2022-08-03T03:43:44;5.13;;;4.83;;
450;SDS011;212;48.748;9.174;2022-08-03T03:46:11;5.30;;;5.00;;
450;SDS011;212;48.748;9.174;2022-08-03T03:48:38;5.50;;;5.20;;
450;SDS011;212;48.748;9.174;2022-08-03T03:51:05;5.50;;;5.20;;
450;SDS011;212;48.748;9.174;2022-08-03T03:53:32;5.43;;;5.13;;
450;SDS011;212;48.748;9.174;2022-08-03T03:55:59;5.23;;;4.70;;
450;SDS011;212;48.748;9.174;2022-08-03T03:58:25;5.37;;;5.07;;
450;SDS011;212;48.748;9.174;2022-08-03T04:00:53;5.00;;;4.70;;
450;SDS011;212;48.748;9.174;2022-08-03T04:03:20;5.37;;;5.07;;
450;SDS011;212;48.748;9.174;2022-08-03T04:05:47;5.67;;;5.37;;
450;SDS011;212;48.748;9.174;2022-08-03T04:08:31;6.67;;;6.27;;
450;SDS011;212;48.748;9.174;2022-08-03T04:11:17;6.87;;;6.50;;
450;SDS011;212;48.748;9.174;2022-08-03T04:13:47;6.23;;;5.90;;
450;SDS011;212;48.748;9.174;2022-08-03T04:16:18;7.70;;;7.30;;
450;SDS011;212;48.748;9.174;2022-08-03T04:18:48;7.40;;;7.00;;
450;SDS011;212;48.748;9.174;2022-08-03T04:21:18;7.33;;;6.93;;
450;SDS011;212;48.748;9.174;2022-08-03T04:23:49;7.17;;;6.77;;
450;SDS011;212;48.748;9.174;2022-08-03T04:26:19;7.30;;;6.63;;
450;SDS011;212;48.748;9.174;2022-08-03T04:28:47;6.90;;;6.50;;
450;SDS011;212;48.748;9.174;2022-08-03T04:31:18;7.47;;;6.80;;
450;SDS011;212;48.748;9.174;2022-08-03T04:33:47;8.10;;;6.77;;
450;SDS011;212;48.748;9.174;2022-08-03T04:36:16;7.50;;;7.10;;
450;SDS011;212;48.748;9.174;2022-08-03T04:38:49;7.13;;;6.73;;
450;SDS011;212;48.748;9.174;2022-08-03T04:41:20;8.57;;;6.90;;
450;SDS011;212;48.748;9.174;2022-08-03T04:43:49;7.67;;;7.30;;
450;SDS011;212;48.748;9.174;2022-08-03T04:46:20;8.10;;;7.70;;
450;SDS011;212;48.748;9.174;2022-08-03T04:48:48;7.80;;;7.40;;
450;SDS011;212;48.748;9.174;2022-08-03T04:51:16;7.80;;;7.40;;
450;SDS011;212;48.748;9.174;2022-08-03T04:53:42;7.53;;;7.13;;
450;SDS011;212;48.748;9.174;2022-08-03T04:56:09;7.97;;;7.57;;
450;SDS011;212;48.748;9.174;2022-08-03T04:58:36;8.70;;;8.20;;
450;SDS011;212;48.748;9.174;2022-08-03T05:01:03;6.93;;;6.53;;
450;SDS011;212;48.748;9.174;2022-08-03T05:03:31;8.30;;;7.90;;
450;SDS011;212;48.748;9.174;2022-08-03T05:05:58;8.90;;;8.40;;
450;SDS011;212;48.748;9.174;2022-08-03T05:08:24;8.77;;;7.70;;
450;SDS011;212;48.748;9.174;2022-08-03T05:10:51;8.20;;;7.80;;
450;SDS011;212;48.748;9.174;2022-08-03T05:13:18;9.43;;;7.70;;
450;SDS011;212;48.748;9.174;2022-08-03T05:15:44;8.37;;;7.97;;
450;SDS011;212;48.748;9.174;2022-08-03T05:18:11;8.37;;;7.93;;
450;SDS011;212;48.748;9.174;2022-08-03T05:20:39;9.20;;;8.70;;
450;SDS011;212;48.748;9.174;2022-08-03T05:23:05;8.23;;;7.83;;
450;SDS011;212;48.748;9.174;2022-08-03T05:25:32;7.80;;;7.40;;
450;SDS011;212;48.748;9.174;2022-08-03T05:27:59;8.77;;;8.27;;
450;SDS011;212;48.748;9.174;2022-08-03T05:30:25;9.60;;;7.93;;
450;SDS011;212;48.748;9.174;2022-08-03T05:32:52;9.47;;;8.17;;
450;SDS011;212;48.748;9.174;2022-08-03T05:35:19;7.47;;;7.07;;
450;SDS011;212;48.748;9.174;2022-08-03T05:37:47;13.20;;;7.20;;
450;SDS011;212;48.748;9.174;2022-08-03T05:40:14;7.20;;;6.80;;
450;SDS011;212;48.748;9.174;2022-08-03T05:42:40;7.17;;;6.77;;
450;SDS011;212;48.748;9.174;2022-08-03T05:45:07;6.10;;;5.80;;
450;SDS011;212;48.748;9.174;2022-08-03T05:47:39;6.50;;;6.10;;
450;SDS011;212;48.748;9.174;2022-08-03T05:50:08;5.67;;;5.37;;
450;SDS011;212;48.748;9.174;2022-08-03T05:52:35;6.47;;;5.70;;
450;SDS011;212;48.748;9.174;2022-08-03T05:55:03;7.77;;;5.93;;
450;SDS011;212;48.748;9.174;2022-08-03T05:57:30;6.60;;;5.57;;
450;SDS011;212;48.748;9.174;2022-08-03T05:59:57;5.40;;;5.10;;
450;SDS011;212;48.748;9.174;2022-08-03T06:02:24;5.40;;;5.10;;
450;SDS011;212;48.748;9.174;2022-08-03T06:04:51;5.17;;;4.87;;
450;SDS011;212;48.748;9.174;2022-08-03T06:07:17;5.17;;;4.87;;
450;SDS011;212;48.748;9.174;2022-08-03T06:09:44;7.20;;;4.20;;
450;SDS011;212;48.748;9.174;2022-08-03T06:12:12;5.10;;;4.80;;
450;SDS011;212;48.748;9.174;2022-08-03T06:14:39;5.43;;;4.53;;
450;SDS011;212;48.748;9.174;2022-08-03T06:17:05;8.13;;;4.40;;
450;SDS011;212;48.748;9.174;2022-08-03T06:19:32;4.47;;;4.17;;
450;SDS011;212;48.748;9.174;2022-08-03T06:21:59;4.50;;;4.00;;
450;SDS011;212;48.748;9.174;2022-08-03T06:24:25;3.53;;;3.33;;
450;SDS011;212;48.748;9.174;2022-08-03T06:26:52;4.03;;;3.57;;
450;SDS011;212;48.748;9.174;2022-08-03T06:29:26;6.40;;;3.33;;
450;SDS011;212;48.748;9.174;2022-08-03T06:31:53;4.80;;;3.40;;
450;SDS011;212;48.748;9.174;2022-08-03T06:34:20;4.53;;;4.10;;
450;SDS011;212;48.748;9.174;2022-08-03T06:36:47;4.77;;;3.53;;
450;SDS011;212;48.748;9.174;2022-08-03T06:39:15;3.80;;;3.60;;
450;SDS011;212;48.748;9.174;2022-08-03T06:41:42;6.03;;;4.17;;
450;SDS011;212;48.748;9.174;2022-08-03T06:44:09;4.50;;;3.53;;
450;SDS011;212;48.748;9.174;2022-08-03T06:46:37;3.70;;;3.50;;
450;SDS011;212;48.748;9.174;2022-08-03T06:49:03;3.60;;;3.40;;
450;SDS011;212;48.748;9.174;2022-08-03T06:51:30;3.67;;;3.47;;
450;SDS011;212;48.748;9.174;2022-08-03T06:53:57;5.87;;;3.63;;
450;SDS011;212;48.748;9.174;2022-08-03T06:56:23;4.10;;;3.87;;
450;SDS011;212;48.748;9.174;2022-08-03T06:58:50;4.23;;;3.77;;
450;SDS011;212;48.748;9.174;2022-08-03T07:01:17;4.07;;;3.87;;
450;SDS011;212;48.748;9.174;2022-08-03T07:03:45;7.97;;;4.30;;
450;SDS011;212;48.748;9.174;2022-08-03T07:06:11;5.97;;;3.67;;
450;SDS011;212;48.748;9.174;2022-08-03T07:08:38;3.63;;;3.47;;
450;SDS011;212;48.748;9.174;2022-08-03T07:11:05;5.70;;;3.40;;
450;SDS011;212;48.748;9.174;2022-08-03T07:13:32;3.60;;;3.00;;
450;SDS011;212;48.748;9.174;2022-08-03T07:15:58;3.57;;;3.07;;
450;SDS011;212;48.748;9.174;2022-08-03T07:18:25;5.13;;;3.67;;
450;SDS011;212;48.748;9.174;2022-08-03T07:20:53;3.77;;;2.90;;
450;SDS011;212;48.748;9.174;2022-08-03T07:23:20;6.07;;;3.93;;
450;SDS011;212;48.748;9.174;2022-08-03T07:25:46;2.67;;;2.47;;
450;SDS011;212;48.748;9.174;2022-08-03T07:28:13;3.80;;;3.00;;
450;SDS011;212;48.748;9.174;2022-08-03T07:30:40;4.13;;;3.27;;
450;SDS011;212;48.748;9.174;2022-08-03T07:33:06;2.77;;;2.57;;
450;SDS011;212;48.748;9.174;2022-08-03T07:35:33;3.00;;;2.73;;
450;SDS011;212;48.748;9.174;2022-08-03T07:38:01;4.37;;;3.00;;
450;SDS011;212;48.748;9.174;2022-08-03T07:40:28;3.27;;;3.00;;
450;SDS011;212;48.748;9.174;2022-08-03T07:42:54;3.10;;;2.90;;
450;SDS011;212;48.748;9.174;2022-08-03T07:45:22;2.87;;;2.67;;
450;SDS011;212;48.748;9.174;2022-08-03T07:47:50;3.80;;;2.80;;
450;SDS011;212;48.748;9.174;2022-08-03T07:50:17;2.87;;;2.63;;
450;SDS011;212;48.748;9.174;2022-08-03T07:52:43;3.27;;;2.40;;
450;SDS011;212;48.748;9.174;2022-08-03T07:55:14;4.30;;;2.27;;
450;SDS011;212;48.748;9.174;2022-08-03T07:57:42;3.77;;;2.50;;
450;SDS011;212;48.748;9.174;2022-08-03T08:00:12;4.13;;;2.63;;
450;SDS011;212;48.748;9.174;2022-08-03T08:02:40;4.87;;;2.53;;
450;SDS011;212;48.748;9.174;2022-08-03T08:05:08;9.33;;;2.30;;
450;SDS011;212;48.748;9.174;2022-08-03T08:07:35;3.80;;;2.67;;
450;SDS011;212;48.748;9.174;2022-08-03T08:10:02;3.77;;;2.30;;
450;SDS011;212;48.748;9.174;2022-08-03T08:12:31;5.70;;;2.50;;
450;SDS011;212;48.748;9.174;2022-08-03T08:14:58;2.13;;;1.87;;
450;SDS011;212;48.748;9.174;2022-08-03T08:17:25;4.73;;;2.40;;
450;SDS011;212;48.748;9.174;2022-08-03T08:19:51;4.93;;;2.60;;
450;SDS011;212;48.748;9.174;2022-08-03T08:22:18;3.73;;;2.70;;
450;SDS011;212;48.748;9.174;2022-08-03T08:24:45;1.80;;;1.70;;
450;SDS011;212;48.748;9.174;2022-08-03T08:27:13;2.67;;;2.30;;
450;SDS011;212;48.748;9.174;2022-08-03T08:29:41;3.23;;;1.93;;
450;SDS011;212;48.748;9.174;2022-08-03T08:32:07;3.47;;;2.40;;
450;SDS011;212;48.748;9.174;2022-08-03T08:34:35;3.90;;;2.07;;
450;SDS011;212;48.748;9.174;2022-08-03T08:37:02;1.97;;;1.90;;
450;SDS011;212;48.748;9.174;2022-08-03T08:39:28;5.17;;;2.27;;
450;SDS011;212;48.748;9.174;2022-08-03T08:41:55;2.60;;;1.80;;
450;SDS011;212;48.748;9.174;2022-08-03T08:44:22;2.90;;;1.77;;
450;SDS011;212;48.748;9.174;2022-08-03T08:46:50;3.90;;;1.83;;
450;SDS011;212;48.748;9.174;2022-08-03T08:49:19;3.00;;;1.90;;
450;SDS011;212;48.748;9.174;2022-08-03T08:51:48;2.50;;;1.90;;
450;SDS011;212;48.748;9.174;2022-08-03T08:54:17;1.70;;;1.60;;
450;SDS011;212;48.748;9.174;2022-08-03T08:56:47;3.07;;;1.93;;
450;SDS011;212;48.748;9.174;2022-08-03T08:59:15;4.33;;;2.07;;
450;SDS011;212;48.748;9.174;2022-08-03T09:01:43;4.00;;;2.17;;
450;SDS011;212;48.748;9.174;2022-08-03T09:04:11;3.57;;;1.90;;
450;SDS011;212;48.748;9.174;2022-08-03T09:06:38;2.07;;;1.90;;
450;SDS011;212;48.748;9.174;2022-08-03T09:09:04;2.83;;;1.40;;
450;SDS011;212;48.748;9.174;2022-08-03T09:11:32;1.93;;;1.63;;
450;SDS011;212;48.748;9.174;2022-08-03T09:13:59;1.70;;;1.50;;
450;SDS011;212;48.748;9.174;2022-08-03T09:16:26;2.23;;;1.70;;
450;SDS011;212;48.748;9.174;2022-08-03T09:18:53;1.73;;;1.63;;
450;SDS011;212;48.748;9.174;2022-08-03T09:21:22;3.70;;;1.70;;
450;SDS011;212;48.748;9.174;2022-08-03T09:23:50;3.03;;;1.80;;
450;SDS011;212;48.748;9.174;2022-08-03T09:26:21;2.30;;;1.70;;
450;SDS011;212;48.748;9.174;2022-08-03T09:28:55;5.37;;;1.40;;
450;SDS011;212;48.748;9.174;2022-08-03T09:31:32;3.20;;;1.90;;
450;SDS011;212;48.748;9.174;2022-08-03T09:34:01;1.83;;;1.40;;
450;SDS011;212;48.748;9.174;2022-08-03T09:36:34;1.60;;;1.37;;
450;SDS011;212;48.748;9.174;2022-08-03T09:39:05;1.80;;;1.47;;
450;SDS011;212;48.748;9.174;2022-08-03T09:41:35;1.47;;;1.40;;
450;SDS011;212;48.748;9.174;2022-08-03T09:44:02;1.50;;;1.40;;
450;SDS011;212;48.748;9.174;2022-08-03T09:46:29;1.50;;;1.40;;
450;SDS011;212;48.748;9.174;2022-08-03T09:49:09;1.93;;;1.33;;
450;SDS011;212;48.748;9.174;2022-08-03T09:51:38;1.57;;;1.50;;
450;SDS011;212;48.748;9.174;2022-08-03T09:54:05;2.30;;;1.30;;
450;SDS011;212;48.748;9.174;2022-08-03T09:56:42;1.77;;;1.40;;
450;SDS011;212;48.748;9.174;2022-08-03T09:59:11;3.77;;;1.70;;
450;SDS011;212;48.748;9.174;2022-08-03T10:01:38;1.73;;;1.53;;
450;SDS011;212;48.748;9.174;2022-08-03T10:04:11;2.07;;;1.47;;
450;SDS011;212;48.748;9.174;2022-08-03T10:06:42;4.40;;;2.00;;
450;SDS011;212;48.748;9.174;2022-08-03T10:09:10;1.80;;;1.23;;
450;SDS011;212;48.748;9.174;2022-08-03T10:11:37;2.70;;;1.90;;
450;SDS011;212;48.748;9.174;2022-08-03T10:14:05;2.20;;;1.23;;
450;SDS011;212;48.748;9.174;2022-08-03T10:16:34;1.50;;;1.30;;
450;SDS011;212;48.748;9.174;2022-08-03T10:19:02;3.30;;;1.60;;
450;SDS011;212;48.748;9.174;2022-08-03T10:21:31;1.73;;;1.33;;
450;SDS011;212;48.748;9.174;2022-08-03T10:24:05;3.23;;;1.63;;
450;SDS011;212;48.748;9.174;2022-08-03T10:26:35;5.43;;;1.90;;
450;SDS011;212;48.748;9.174;2022-08-03T10:29:06;1.40;;;1.03;;
450;SDS011;212;48.748;9.174;2022-08-03T10:31:37;1.60;;;1.50;;
450;SDS011;212;48.748;9.174;2022-08-03T10:34:05;1.37;;;1.27;;
450;SDS011;212;48.748;9.174;2022-08-03T10:36:40;3.53;;;2.30;;
450;SDS011;212;48.748;9.174;2022-08-03T10:39:09;1.87;;;1.77;;
450;SDS011;212;48.748;9.174;2022-08-03T10:41:39;2.00;;;1.37;;
450;SDS011;212;48.748;9.174;2022-08-03T10:44:09;1.43;;;1.43;;
450;SDS011;212;48.748;9.174;2022-08-03T10:46:39;1.40;;;1.30;;
450;SDS011;212;48.748;9.174;2022-08-03T10:49:08;1.90;;;1.53;;
450;SDS011;212;48.748;9.174;2022-08-03T10:51:38;2.57;;;1.77;;
450;SDS011;212;48.748;9.174;2022-08-03T10:54:06;1.73;;;1.63;;
450;SDS011;212;48.748;9.174;2022-08-03T10:56:39;2.33;;;1.83;;
450;SDS011;212;48.748;9.174;2022-08-03T11:02:22;1.73;;;1.50;;
450;SDS011;212;48.748;9.174;2022-08-03T11:05:30;1.73;;;1.53;;
450;SDS011;212;48.748;9.174;2022-08-03T11:08:20;4.80;;;1.80;;
450;SDS011;212;48.748;9.174;2022-08-03T11:10:59;3.10;;;1.20;;
450;SDS011;212;48.748;9.174;2022-08-03T11:13:29;1.50;;;1.20;;
450;SDS011;212;48.748;9.174;2022-08-03T11:15:59;1.70;;;1.70;;
450;SDS011;212;48.748;9.174;2022-08-03T11:18:27;2.10;;;1.63;;
450;SDS011;212;48.748;9.174;2022-08-03T11:20:55;3.27;;;2.30;;
450;SDS011;212;48.748;9.174;2022-08-03T11:23:39;1.80;;;1.40;;
450;SDS011;212;48.748;9.174;2022-08-03T11:26:07;2.30;;;2.10;;
450;SDS011;212;48.748;9.174;2022-08-03T11:28:36;1.50;;;1.37;;
450;SDS011;212;48.748;9.174;2022-08-03T11:34:12;6.17;;;2.03;;
450;SDS011;212;48.748;9.174;2022-08-03T11:39:46;2.27;;;2.07;;
450;SDS011;212;48.748;9.174;2022-08-03T11:45:09;1.90;;;1.57;;
450;SDS011;212;48.748;9.174;2022-08-03T11:47:37;3.17;;;1.90;;
450;SDS011;212;48.748;9.174;2022-08-03T11:50:05;1.50;;;1.40;;
450;SDS011;212;48.748;9.174;2022-08-03T11:52:33;2.00;;;1.73;;
450;SDS011;212;48.748;9.174;2022-08-03T11:55:08;2.53;;;1.50;;
450;SDS011;212;48.748;9.174;2022-08-03T11:57:39;2.80;;;2.20;;
450;SDS011;212;48.748;9.174;2022-08-03T12:00:21;3.27;;;1.70;;
450;SDS011;212;48.748;9.174;2022-08-03T12:02:59;1.60;;;1.50;;
450;SDS011;212;48.748;9.174;2022-08-03T12:05:41;4.17;;;2.07;;
450;SDS011;212;48.748;9.174;2022-08-03T12:08:10;3.20;;;2.10;;
450;SDS011;212;48.748;9.174;2022-08-03T12:10:38;2.73;;;1.80;;
450;SDS011;212;48.748;9.174;2022-08-03T12:13:06;2.33;;;1.70;;
450;SDS011;212;48.748;9.174;2022-08-03T12:15:35;2.27;;;2.07;;
450;SDS011;212;48.748;9.174;2022-08-03T12:18:09;3.97;;;1.80;;
450;SDS011;212;48.748;9.174;2022-08-03T12:20:39;2.17;;;1.90;;
450;SDS011;212;48.748;9.174;2022-08-03T12:23:06;2.30;;;2.10;;
450;SDS011;212;48.748;9.174;2022-08-03T12:25:33;6.93;;;2.27;;
450;SDS011;212;48.748;9.174;2022-08-03T12:28:08;2.30;;;2.20;;
450;SDS011;212;48.748;9.174;2022-08-03T12:30:41;2.03;;;1.90;;
450;SDS011;212;48.748;9.174;2022-08-03T12:33:15;4.80;;;2.87;;
450;SDS011;212;48.748;9.174;2022-08-03T12:35:45;1.80;;;1.70;;
450;SDS011;212;48.748;9.174;2022-08-03T12:38:17;3.00;;;1.53;;
450;SDS011;212;48.748;9.174;2022-08-03T12:40:53;2.33;;;2.13;;
450;SDS011;212;48.748;9.174;2022-08-03T12:43:21;2.30;;;2.10;;
450;SDS011;212;48.748;9.174;2022-08-03T12:45:49;2.37;;;2.17;;
450;SDS011;212;48.748;9.174;2022-08-03T12:48:16;3.97;;;2.23;;
450;SDS011;212;48.748;9.174;2022-08-03T12:50:43;3.00;;;1.83;;
450;SDS011;212;48.748;9.174;2022-08-03T12:53:10;2.27;;;2.07;;
450;SDS011;212;48.748;9.174;2022-08-03T12:55:37;3.23;;;2.20;;
450;SDS011;212;48.748;9.174;2022-08-03T12:58:04;2.07;;;1.93;;
450;SDS011;212;48.748;9.174;2022-08-03T13:00:35;2.47;;;2.30;;
450;SDS011;212;48.748;9.174;2022-08-03T13:03:04;2.00;;;1.90;;
450;SDS011;212;48.748;9.174;2022-08-03T13:05:41;1.83;;;1.60;;
450;SDS011;212;48.748;9.174;2022-08-03T13:08:16;3.93;;;2.10;;
450;SDS011;212;48.748;9.174;2022-08-03T13:10:43;2.27;;;2.07;;
450;SDS011;212;48.748;9.174;2022-08-03T13:13:10;3.30;;;1.73;;
450;SDS011;212;48.748;9.174;2022-08-03T13:15:37;1.80;;;1.70;;
450;SDS011;212;48.748;9.174;2022-08-03T13:18:05;2.13;;;2.00;;
450;SDS011;212;48.748;9.174;2022-08-03T13:20:32;2.23;;;2.03;;
450;SDS011;212;48.748;9.174;2022-08-03T13:22:58;3.43;;;2.20;;
450;SDS011;212;48.748;9.174;2022-08-03T13:25:25;2.40;;;2.27;;
450;SDS011;212;48.748;9.174;2022-08-03T13:27:52;2.37;;;1.93;;
450;SDS011;212;48.748;9.174;2022-08-03T13:30:19;2.70;;;2.13;;
450;SDS011;212;48.748;9.174;2022-08-03T13:32:45;2.50;;;2.30;;
450;SDS011;212;48.748;9.174;2022-08-03T13:35:13;2.20;;;2.00;;
450;SDS011;212;48.748;9.174;2022-08-03T13:37:40;2.80;;;2.13;;
450;SDS011;212;48.748;9.174;2022-08-03T13:40:07;2.90;;;1.90;;
450;SDS011;212;48.748;9.174;2022-08-03T13:42:34;2.30;;;1.90;;
450;SDS011;212;48.748;9.174;2022-08-03T13:45:02;3.63;;;1.90;;
450;SDS011;212;48.748;9.174;2022-08-03T13:47:29;2.50;;;2.30;;
450;SDS011;212;48.748;9.174;2022-08-03T13:49:56;1.83;;;1.73;;
450;SDS011;212;48.748;9.174;2022-08-03T13:52:24;2.77;;;2.50;;
450;SDS011;212;48.748;9.174;2022-08-03T13:54:51;2.60;;;2.40;;
450;SDS011;212;48.748;9.174;2022-08-03T13:57:18;2.00;;;1.80;;
450;SDS011;212;48.748;9.174;2022-08-03T13:59:44;2.30;;;2.10;;
450;SDS011;212;48.748;9.174;2022-08-03T14:02:11;1.80;;;1.67;;
450;SDS011;212;48.748;9.174;2022-08-03T14:04:38;2.40;;;2.20;;
450;SDS011;212;48.748;9.174;2022-08-03T14:07:04;5.17;;;3.00;;
450;SDS011;212;48.748;9.174;2022-08-03T14:09:32;2.30;;;2.20;;
450;SDS011;212;48.748;9.174;2022-08-03T14:11:59;2.47;;;2.27;;
450;SDS011;212;48.748;9.174;2022-08-03T14:14:26;2.07;;;1.93;;
450;SDS011;212;48.748;9.174;2022-08-03T14:16:52;2.17;;;1.87;;
450;SDS011;212;48.748;9.174;2022-08-03T14:19:19;2.80;;;2.60;;
450;SDS011;212;48.748;9.174;2022-08-03T14:21:46;3.87;;;2.20;;
450;SDS011;212;48.748;9.174;2022-08-03T14:24:12;2.57;;;1.97;;
450;SDS011;212;48.748;9.174;2022-08-03T14:26:40;1.90;;;1.80;;
450;SDS011;212;48.748;9.174;2022-08-03T14:29:07;2.60;;;2.40;;
450;SDS011;212;48.748;9.174;2022-08-03T14:31:34;2.57;;;2.37;;
450;SDS011;212;48.748;9.174;2022-08-03T14:34:01;2.47;;;1.90;;
450;SDS011;212;48.748;9.174;2022-08-03T14:36:29;2.27;;;2.00;;
450;SDS011;212;48.748;9.174;2022-08-03T14:38:56;8.10;;;2.20;;
450;SDS011;212;48.748;9.174;2022-08-03T14:41:23;2.23;;;2.10;;
450;SDS011;212;48.748;9.174;2022-08-03T14:43:50;2.23;;;1.90;;
450;SDS011;212;48.748;9.174;2022-08-03T14:46:18;3.43;;;2.43;;
450;SDS011;212;48.748;9.174;2022-08-03T14:48:45;2.23;;;2.03;;
450;SDS011;212;48.748;9.174;2022-08-03T14:51:11;1.90;;;1.80;;
450;SDS011;212;48.748;9.174;2022-08-03T14:53:38;4.03;;;2.10;;
450;SDS011;212;48.748;9.174;2022-08-03T14:56:05;2.23;;;2.07;;
450;SDS011;212;48.748;9.174;2022-08-03T14:58:32;2.30;;;2.10;;
450;SDS011;212;48.748;9.174;2022-08-03T15:01:00;2.77;;;2.57;;
450;SDS011;212;48.748;9.174;2022-08-03T15:03:27;2.03;;;1.93;;
450;SDS011;212;48.748;9.174;2022-08-03T15:05:54;2.53;;;2.33;;
450;SDS011;212;48.748;9.174;2022-08-03T15:08:21;2.03;;;1.90;;
450;SDS011;212;48.748;9.174;2022-08-03T15:10:49;2.40;;;2.20;;
450;SDS011;212;48.748;9.174;2022-08-03T15:13:17;2.33;;;1.93;;
450;SDS011;212;48.748;9.174;2022-08-03T15:15:44;2.50;;;2.30;;
450;SDS011;212;48.748;9.174;2022-08-03T15:18:12;1.87;;;1.80;;
450;SDS011;212;48.748;9.174;2022-08-03T15:20:39;2.60;;;1.80;;
450;SDS011;212;48.748;9.174;2022-08-03T15:23:06;3.73;;;2.17;;
450;SDS011;212;48.748;9.174;2022-08-03T15:25:32;2.37;;;2.17;;
450;SDS011;212;48.748;9.174;2022-08-03T15:27:59;3.33;;;2.70;;
450;SDS011;212;48.748;9.174;2022-08-03T15:30:26;2.27;;;2.07;;
450;SDS011;212;48.748;9.174;2022-08-03T15:32:52;2.90;;;2.70;;
450;SDS011;212;48.748;9.174;2022-08-03T15:35:20;2.40;;;2.20;;
450;SDS011;212;48.748;9.174;2022-08-03T15:37:47;2.30;;;2.10;;
450;SDS011;212;48.748;9.174;2022-08-03T15:40:14;2.33;;;2.13;;
450;SDS011;212;48.748;9.174;2022-08-03T15:42:41;2.70;;;2.50;;
450;SDS011;212;48.748;9.174;2022-08-03T15:45:08;2.27;;;2.07;;
450;SDS011;212;48.748;9.174;2022-08-03T15:47:35;2.07;;;1.93;;
450;SDS011;212;48.748;9.174;2022-08-03T15:50:02;2.30;;;2.00;;
450;SDS011;212;48.748;9.174;2022-08-03T15:52:30;2.33;;;2.00;;
450;SDS011;212;48.748;9.174;2022-08-03T15:54:57;2.60;;;1.83;;
450;SDS011;212;48.748;9.174;2022-08-03T15:57:24;2.07;;;1.93;;
450;SDS011;212;48.748;9.174;2022-08-03T15:59:50;2.03;;;1.90;;
450;SDS011;212;48.748;9.174;2022-08-03T16:02:17;1.83;;;1.73;;
450;SDS011;212;48.748;9.174;2022-08-03T16:04:44;2.40;;;2.30;;
450;SDS011;212;48.748;9.174;2022-08-03T16:07:10;1.87;;;1.77;;